Terminal Aerodrome Forecast
Issued by NWS

Home | Current Version | Previous Version | Text Only | Print | Product List | Glossary On
Versions: 1 2 3 4 5 6 7 8 9 10 11 12 13 14 15
000
FTUS43 KFGF 301739 AAB
TAFTVF
TAF AMD
KTVF 301739Z 3018/3118 16007KT P6SM SCT070
      TEMPO 3018/3020 BKN006
     FM302000 15008KT P6SM SCT120
     FM310000 12006KT P6SM SCT150
     FM310700 11004KT P6SM BKN120
     FM311100 VRB03KT P6SM SCT090
      AMD NOT SKED=

USA.gov is the U.S. government's official web portal to all federal, state and local government web resources and services.